Time;durP1;ratioP1;P1;durP2;ratioP2;P2;SDS_P1;SDS_P2;PMS_P1;PMS_P2;Temp;Humidity;BMP_temperature;BMP_pressure;BME280_temperature;BME280_humidity;BME280_pressure;Samples;Min_cycle;Max_cycle;Signal;HPM_P1;HPM_P2
2021/07/15 00:02:17;;;;;;;29.00;12.70;;;;;;;25.10;64.57;100458.58;126342;1099;104601;-78
2021/07/15 00:04:47;;;;;;;24.30;13.10;;;;;;;25.10;64.53;100461.26;126319;1097;104201;-78
2021/07/15 00:07:19;;;;;;;26.53;12.63;;;;;;;25.08;64.90;100465.76;126336;1098;104203;-78
2021/07/15 00:09:51;;;;;;;27.87;13.10;;;;;;;25.11;64.88;100464.81;126332;1098;104184;-77
2021/07/15 00:12:21;;;;;;;32.83;14.63;;;;;;;25.12;64.80;100459.41;126340;1099;104185;-77
2021/07/15 00:14:52;;;;;;;33.33;14.30;;;;;;;25.12;64.89;100463.91;126362;1099;104316;-78
2021/07/15 00:17:23;;;;;;;27.90;13.50;;;;;;;25.13;64.91;100457.59;126304;1098;104162;-77
2021/07/15 00:19:53;;;;;;;27.97;13.70;;;;;;;25.10;64.58;100455.89;126372;1099;104153;-77
2021/07/15 00:22:24;;;;;;;26.87;12.43;;;;;;;25.08;65.11;100456.84;126232;1099;104213;-77
2021/07/15 00:24:55;;;;;;;27.60;13.57;;;;;;;25.05;64.96;100459.59;126348;1099;104227;-77
2021/07/15 00:27:26;;;;;;;30.83;12.83;;;;;;;25.02;65.17;100455.17;126379;1099;103288;-77
2021/07/15 00:29:57;;;;;;;28.73;13.63;;;;;;;24.98;65.23;100452.61;126346;1099;104153;-78
2021/07/15 00:32:27;;;;;;;26.53;14.23;;;;;;;24.95;64.89;100456.27;126325;1099;104213;-77
2021/07/15 00:34:58;;;;;;;27.13;14.00;;;;;;;24.90;65.04;100453.69;126300;1099;104153;-78
2021/07/15 00:37:29;;;;;;;28.67;13.77;;;;;;;24.86;65.29;100453.80;126330;1099;104239;-78
2021/07/15 00:39:59;;;;;;;27.43;13.87;;;;;;;24.82;65.36;100454.78;126335;1099;104277;-78
2021/07/15 00:42:31;;;;;;;24.33;12.83;;;;;;;24.77;65.32;100449.53;126269;1099;104140;-77
2021/07/15 00:45:03;;;;;;;25.40;13.03;;;;;;;24.73;65.28;100448.73;126380;1099;104149;-78
2021/07/15 00:47:33;;;;;;;25.30;13.33;;;;;;;24.71;65.33;100447.89;126348;1099;104142;-77
2021/07/15 00:50:07;;;;;;;29.20;12.70;;;;;;;24.69;65.70;100448.84;126339;1099;104210;-77
2021/07/15 00:52:38;;;;;;;31.77;14.13;;;;;;;24.66;65.69;100451.59;126320;1099;104150;-78
2021/07/15 00:55:13;;;;;;;30.33;12.93;;;;;;;24.64;65.57;100456.99;126288;1098;104137;-78
2021/07/15 00:57:45;;;;;;;29.37;13.70;;;;;;;24.64;65.44;100453.44;126342;1099;104163;-77
2021/07/15 01:00:18;;;;;;;24.33;13.93;;;;;;;24.60;66.24;100451.73;126347;1099;104191;-78
2021/07/15 01:02:50;;;;;;;33.13;13.93;;;;;;;24.58;65.73;100454.45;126342;1097;104114;-78
2021/07/15 01:05:25;;;;;;;36.77;15.20;;;;;;;24.54;66.19;100450.03;126358;1099;104213;-77
2021/07/15 01:07:56;;;;;;;31.23;14.50;;;;;;;24.53;65.91;100450.97;126273;1099;104316;-78
2021/07/15 01:10:30;;;;;;;36.63;15.30;;;;;;;24.43;66.30;100444.03;126387;1098;104179;-78
2021/07/15 01:13:12;;;;;;;30.90;15.03;;;;;;;24.36;65.78;100444.17;126327;1097;102954;-78
2021/07/15 01:15:55;;;;;;;35.53;15.90;;;;;;;24.29;66.54;100436.30;126338;1099;104181;-77
2021/07/15 01:18:35;;;;;;;31.23;14.58;;;;;;;24.26;66.17;100441.72;126356;1097;104291;-78
2021/07/15 01:21:25;;;;;;;31.87;15.53;;;;;;;24.25;66.37;100432.80;126314;1099;104155;-77
2021/07/15 01:24:23;;;;;;;34.23;15.50;;;;;;;24.25;66.23;100434.58;126294;1099;104140;-77
2021/07/15 01:27:15;;;;;;;33.27;14.93;;;;;;;24.19;66.50;100430.26;126374;1099;104598;-78
2021/07/15 01:30:02;;;;;;;33.53;16.10;;;;;;;24.18;66.77;100441.89;126379;1099;104172;-78
2021/07/15 01:32:37;;;;;;;34.67;15.77;;;;;;;24.18;66.87;100434.75;126303;1099;104227;-78
2021/07/15 01:35:10;;;;;;;35.30;16.47;;;;;;;24.17;66.82;100443.70;126290;1098;104402;-77
2021/07/15 01:37:48;;;;;;;33.33;15.30;;;;;;;24.15;67.11;100437.50;126354;1099;104179;-78
2021/07/15 01:40:24;;;;;;;28.20;15.27;;;;;;;24.13;66.90;100441.11;126320;1099;104666;-78
2021/07/15 01:43:00;;;;;;;34.23;15.80;;;;;;;24.11;67.14;100435.78;126307;1099;104194;-77
2021/07/15 01:45:32;;;;;;;29.67;14.83;;;;;;;24.08;67.26;100427.80;126368;1099;104219;-77
2021/07/15 01:48:03;;;;;;;31.87;16.00;;;;;;;24.05;67.31;100427.88;126326;1099;104168;-78
2021/07/15 01:50:34;;;;;;;33.20;15.33;;;;;;;24.05;67.17;100433.23;126343;1098;104216;-78
2021/07/15 01:53:06;;;;;;;42.95;16.50;;;;;;;24.02;67.49;100433.30;126299;1098;104197;-78
2021/07/15 01:55:37;;;;;;;36.47;16.67;;;;;;;24.03;67.43;100441.30;126406;1099;104155;-78
2021/07/15 01:58:11;;;;;;;39.33;16.43;;;;;;;24.01;67.49;100440.46;126314;1097;104139;-77
2021/07/15 02:00:43;;;;;;;37.23;15.73;;;;;;;24.00;67.38;100437.81;126328;1099;104309;-78
2021/07/15 02:03:16;;;;;;;29.90;15.33;;;;;;;24.01;67.41;100429.74;126329;1099;104198;-78
2021/07/15 02:05:49;;;;;;;36.05;16.32;;;;;;;23.99;67.45;100430.67;126320;1098;104169;-78
2021/07/15 02:08:21;;;;;;;37.77;15.53;;;;;;;23.95;67.44;100427.19;126398;1099;104150;-77
2021/07/15 02:10:54;;;;;;;35.87;15.17;;;;;;;23.93;67.52;100433.48;126324;1099;104152;-78
2021/07/15 02:13:26;;;;;;;34.73;15.90;;;;;;;23.88;67.60;100428.22;126312;1099;104367;-78
2021/07/15 02:15:58;;;;;;;32.55;15.85;;;;;;;23.85;67.81;100436.31;126347;1099;104147;-78
2021/07/15 02:18:30;;;;;;;30.53;16.40;;;;;;;23.83;67.61;100425.59;126327;1099;104149;-77
2021/07/15 02:21:03;;;;;;;31.70;16.27;;;;;;;23.81;67.74;100429.21;126368;1099;104172;-78
2021/07/15 02:23:34;;;;;;;39.03;16.27;;;;;;;23.79;68.08;100428.37;126312;1099;104144;-77
2021/07/15 02:26:07;;;;;;;37.30;16.05;;;;;;;23.76;67.78;100431.11;126285;1099;104413;-78
2021/07/15 02:28:38;;;;;;;36.90;17.30;;;;;;;23.73;68.10;100425.81;126369;1099;104340;-77
2021/07/15 02:31:15;;;;;;;35.00;15.17;;;;;;;23.71;68.09;100422.30;126353;1099;104272;-77
2021/07/15 02:33:50;;;;;;;37.70;16.90;;;;;;;23.71;68.28;100428.52;126310;1097;104268;-77
2021/07/15 02:36:23;;;;;;;38.17;17.53;;;;;;;23.73;68.11;100431.17;126356;1099;104172;-78
2021/07/15 02:38:56;;;;;;;31.97;16.70;;;;;;;23.73;68.56;100426.69;126334;1099;104156;-78
2021/07/15 02:41:27;;;;;;;32.80;15.73;;;;;;;23.71;68.44;100415.12;126368;1099;104134;-77
2021/07/15 02:43:57;;;;;;;32.33;15.47;;;;;;;23.72;68.39;100416.91;126279;1099;104143;-78
2021/07/15 02:46:28;;;;;;;36.77;16.27;;;;;;;23.72;68.31;100418.67;126409;1099;104149;-77
2021/07/15 02:49:00;;;;;;;37.13;16.93;;;;;;;23.72;68.45;100422.26;126322;1099;104243;-78
2021/07/15 02:51:31;;;;;;;37.80;16.90;;;;;;;23.74;68.48;100417.74;126303;1099;104149;-77
2021/07/15 02:54:04;;;;;;;28.97;15.23;;;;;;;23.71;68.42;100422.30;126327;1099;104159;-78
2021/07/15 02:56:41;;;;;;;34.53;16.73;;;;;;;23.71;68.93;100422.30;126319;1099;104143;-77
2021/07/15 02:59:20;;;;;;;33.03;16.60;;;;;;;23.71;68.72;100417.80;126356;1099;105145;-78
2021/07/15 03:01:58;;;;;;;35.83;15.90;;;;;;;23.71;68.74;100417.80;126306;1099;104205;-77
2021/07/15 03:04:35;;;;;;;33.60;16.33;;;;;;;23.71;68.84;100424.97;126248;1097;104264;-77
2021/07/15 03:07:10;;;;;;;31.87;17.17;;;;;;;23.73;69.19;100415.09;126354;1099;104134;-78
2021/07/15 03:09:47;;;;;;;34.17;15.67;;;;;;;23.75;68.81;100423.97;126347;1099;105239;-78
2021/07/15 03:12:24;;;;;;;38.17;15.67;;;;;;;23.77;68.97;100431.08;126354;1099;104144;-78
2021/07/15 03:14:57;;;;;;;34.53;16.20;;;;;;;23.75;69.11;100418.61;126273;1099;104162;-78
2021/07/15 03:17:34;;;;;;;38.20;16.67;;;;;;;23.77;69.23;100428.40;126318;1099;104159;-77
2021/07/15 03:20:09;;;;;;;34.20;15.50;;;;;;;23.80;69.33;100422.98;126338;1099;104219;-77
2021/07/15 03:22:45;;;;;;;34.60;14.97;;;;;;;23.86;69.31;100425.57;126337;1099;104230;-78
2021/07/15 03:25:20;;;;;;;34.47;15.00;;;;;;;23.91;68.99;100430.84;126294;1099;104153;-77
2021/07/15 03:27:55;;;;;;;38.90;15.37;;;;;;;23.95;69.42;100428.97;126323;1099;104191;-77
2021/07/15 03:30:27;;;;;;;35.43;15.27;;;;;;;23.98;69.37;100419.09;126339;1099;104242;-78
2021/07/15 03:32:59;;;;;;;37.77;15.33;;;;;;;24.03;69.52;100421.67;126359;1099;104615;-78
2021/07/15 03:35:30;;;;;;;37.20;15.03;;;;;;;24.10;69.42;100417.05;126272;1099;104182;-78
2021/07/15 03:38:02;;;;;;;28.40;12.90;;;;;;;24.16;69.47;100424.97;126343;1099;104143;-78
2021/07/15 03:40:34;;;;;;;29.70;13.30;;;;;;;24.18;69.11;100423.13;126377;1099;104175;-77
2021/07/15 03:43:07;;;;;;;30.33;13.93;;;;;;;24.19;69.39;100428.45;126312;1099;104143;-77
2021/07/15 03:45:39;;;;;;;28.80;14.70;;;;;;;24.18;69.32;100421.34;126310;1098;104157;-78
2021/07/15 03:48:12;;;;;;;29.93;14.83;;;;;;;24.14;68.89;100429.48;126349;1099;104159;-78
2021/07/15 03:50:43;;;;;;;30.57;14.87;;;;;;;24.11;69.17;100433.11;126388;1097;104278;-78
2021/07/15 03:53:16;;;;;;;31.13;15.47;;;;;;;24.08;68.99;100443.02;126343;1096;104288;-78
2021/07/15 03:55:49;;;;;;;27.05;14.47;;;;;;;24.07;69.23;100435.88;126286;1099;104237;-78
2021/07/15 03:58:20;;;;;;;36.53;15.03;;;;;;;24.03;68.66;100441.30;126382;1099;104232;-78
2021/07/15 04:00:52;;;;;;;29.27;15.20;;;;;;;24.02;69.17;100436.84;126284;1099;104360;-76
2021/07/15 04:03:25;;;;;;;31.57;14.60;;;;;;;24.05;69.25;100435.91;126361;1099;104149;-78
2021/07/15 04:05:56;;;;;;;31.50;15.17;;;;;;;24.07;69.04;100438.56;126304;1099;104137;-78
2021/07/15 04:08:30;;;;;;;33.13;15.77;;;;;;;24.09;69.07;100434.94;126325;1099;104332;-78
2021/07/15 04:11:03;;;;;;;33.37;15.27;;;;;;;24.10;69.36;100433.14;126380;1099;104219;-78
2021/07/15 04:13:36;;;;;;;32.70;15.87;;;;;;;24.14;68.78;100432.16;126347;1099;104210;-79
2021/07/15 04:16:23;;;;;;;31.90;15.18;;;;;;;24.16;68.83;100435.69;126327;1098;104163;-80
2021/07/15 04:18:58;;;;;;;33.60;15.70;;;;;;;24.20;69.16;100434.72;126309;1099;104642;-78
2021/07/15 04:21:29;;;;;;;30.37;15.93;;;;;;;24.22;68.69;100436.42;126280;1099;104262;-77
2021/07/15 04:24:01;;;;;;;32.47;16.43;;;;;;;24.25;68.92;100431.91;126337;1099;104198;-78
2021/07/15 04:26:32;;;;;;;32.60;17.20;;;;;;;24.29;68.85;100431.80;126264;1098;104219;-78
2021/07/15 04:29:04;;;;;;;31.03;16.37;;;;;;;24.32;69.10;100429.05;126325;1099;104254;-78
2021/07/15 04:31:51;;;;;;;35.03;17.23;;;;;;;24.36;68.92;100430.77;126363;1099;104293;-78
2021/07/15 04:34:23;;;;;;;34.93;16.50;;;;;;;24.44;69.07;100427.03;126275;1099;104136;-78
2021/07/15 04:36:54;;;;;;;34.53;16.43;;;;;;;24.49;69.09;100435.84;126311;1098;104143;-77
2021/07/15 04:39:27;;;;;;;35.30;16.43;;;;;;;24.54;69.01;100425.89;126306;1099;104185;-77
2021/07/15 04:42:01;;;;;;;33.18;16.75;;;;;;;24.60;68.84;100431.14;126311;1099;104131;-78
2021/07/15 04:44:34;;;;;;;33.13;16.87;;;;;;;24.67;68.80;100431.91;126347;1099;104242;-78
2021/07/15 04:47:07;;;;;;;34.35;15.63;;;;;;;24.74;68.88;100431.72;126258;1099;104155;-77
2021/07/15 04:49:38;;;;;;;32.43;17.03;;;;;;;24.81;68.89;100434.23;126341;1099;104155;-77
2021/07/15 04:52:11;;;;;;;32.10;16.67;;;;;;;24.84;68.66;100443.11;126340;1099;104150;-77
2021/07/15 04:54:43;;;;;;;31.40;16.87;;;;;;;24.87;68.53;100436.77;126321;1099;104140;-75
2021/07/15 04:57:14;;;;;;;31.33;16.47;;;;;;;24.90;68.57;100434.91;126294;1099;104144;-76
2021/07/15 04:59:46;;;;;;;30.90;15.80;;;;;;;24.93;68.44;100437.52;126223;1098;104672;-77
2021/07/15 05:02:17;;;;;;;29.07;14.90;;;;;;;24.97;68.43;100432.94;126279;1099;104166;-77
2021/07/15 05:04:47;;;;;;;29.60;14.57;;;;;;;25.03;68.33;100435.48;126222;1099;104246;-76
2021/07/15 05:07:18;;;;;;;30.00;14.43;;;;;;;25.11;68.34;100441.52;126314;1097;104216;-78
2021/07/15 05:09:48;;;;;;;27.27;12.40;;;;;;;25.19;68.01;100438.64;126308;1099;104233;-77
2021/07/15 05:12:19;;;;;;;24.10;12.37;;;;;;;25.28;67.40;100438.44;126269;1099;104319;-78
2021/07/15 05:14:52;;;;;;;27.50;12.13;;;;;;;25.34;67.35;100440.09;126303;1096;104174;-77
2021/07/15 05:17:23;;;;;;;29.72;13.35;;;;;;;25.40;66.99;100445.30;126263;1099;105502;-78
2021/07/15 05:19:54;;;;;;;32.43;12.40;;;;;;;25.46;66.93;100446.92;126249;1099;104362;-78
2021/07/15 05:22:25;;;;;;;27.63;12.40;;;;;;;25.52;66.52;100440.52;126275;1097;104137;-78
2021/07/15 05:24:55;;;;;;;22.67;12.83;;;;;;;25.59;67.04;100444.81;126065;1099;104194;-77
2021/07/15 05:27:28;;;;;;;28.50;13.17;;;;;;;25.65;66.59;100441.95;126224;1098;104188;-77
2021/07/15 05:30:02;;;;;;;26.40;12.10;;;;;;;25.71;66.97;100444.48;126219;1099;104621;-76
2021/07/15 05:32:36;;;;;;;29.47;13.30;;;;;;;25.80;66.95;100446.91;126302;1099;104245;-78
2021/07/15 05:35:09;;;;;;;33.73;15.23;;;;;;;25.87;66.59;100446.70;126151;1099;104990;-77
2021/07/15 05:37:40;;;;;;;39.47;15.83;;;;;;;25.94;66.64;100443.80;126020;1099;104143;-75
2021/07/15 05:40:12;;;;;;;33.10;14.63;;;;;;;26.00;66.11;100446.34;126146;1099;104274;-75
2021/07/15 05:42:43;;;;;;;35.37;14.40;;;;;;;26.07;65.78;100449.75;126063;1099;104270;-77
2021/07/15 05:45:18;;;;;;;31.37;12.97;;;;;;;26.13;66.09;100445.98;126239;1098;104136;-77
2021/07/15 05:47:51;;;;;;;33.10;14.77;;;;;;;26.18;65.59;100449.44;126212;1099;104261;-76
2021/07/15 05:50:24;;;;;;;31.47;15.77;;;;;;;26.25;65.57;100445.61;126149;1099;104246;-77
2021/07/15 05:52:56;;;;;;;31.70;15.10;;;;;;;26.31;65.64;100445.43;126216;1099;104198;-77
2021/07/15 05:55:30;;;;;;;32.10;15.80;;;;;;;26.40;65.92;100446.06;126174;1099;104312;-76
2021/07/15 05:58:02;;;;;;;30.95;13.93;;;;;;;26.46;65.70;100452.16;126060;1098;104153;-78
2021/07/15 06:00:34;;;;;;;30.77;14.43;;;;;;;26.53;65.17;100451.02;126119;1099;104210;-75
2021/07/15 06:03:11;;;;;;;33.20;15.73;;;;;;;26.60;64.82;100449.05;126219;1099;104191;-78
2021/07/15 06:05:44;;;;;;;33.53;15.07;;;;;;;26.65;64.88;100443.52;126090;1099;104153;-77
2021/07/15 06:08:17;;;;;;;34.57;16.33;;;;;;;26.68;64.06;100448.84;126157;1099;104188;-76
2021/07/15 06:10:50;;;;;;;37.07;15.67;;;;;;;26.74;64.25;100451.33;126156;1099;104169;-78
2021/07/15 06:13:21;;;;;;;;;;;;;;;26.77;64.41;100453.02;126168;1097;104146;-79
2021/07/15 06:15:55;;;;;;;33.10;14.57;;;;;;;26.80;63.64;100448.44;126088;1099;104238;-75
2021/07/15 06:18:27;;;;;;;31.80;14.37;;;;;;;26.86;63.33;100440.14;126097;1099;104195;-77
2021/07/15 06:20:59;;;;;;;30.47;14.77;;;;;;;26.95;63.47;100441.66;126260;1099;104146;-78
2021/07/15 06:23:34;;;;;;;41.13;16.00;;;;;;;27.02;63.63;100434.24;126160;1099;104226;-78
2021/07/15 06:26:12;;;;;;;40.77;15.07;;;;;;;27.07;62.93;100437.69;126231;1099;104608;-77
2021/07/15 06:28:44;;;;;;;32.87;15.20;;;;;;;27.13;62.69;100434.78;126073;1099;104570;-77
2021/07/15 06:31:25;;;;;;;34.23;15.57;;;;;;;27.20;62.49;100440.83;126170;1099;104262;-77
2021/07/15 06:33:59;;;;;;;38.50;15.80;;;;;;;27.26;62.68;100433.41;126081;1099;104258;-77
2021/07/15 06:36:34;;;;;;;36.63;15.33;;;;;;;27.34;62.27;100435.00;126288;1099;104159;-79
2021/07/15 06:39:07;;;;;;;34.70;15.63;;;;;;;27.40;62.48;100432.09;126233;1099;104193;-77
2021/07/15 06:41:52;;;;;;;35.27;14.63;;;;;;;27.46;61.72;100431.88;125415;1099;104172;-76
2021/07/15 06:44:25;;;;;;;41.10;14.67;;;;;;;27.53;61.86;100433.40;126140;1099;104306;-77
2021/07/15 06:47:00;;;;;;;32.87;13.83;;;;;;;27.62;61.32;100434.89;125423;1099;104318;-78
2021/07/15 06:49:32;;;;;;;29.17;11.83;;;;;;;27.73;61.05;100434.51;126052;1099;104181;-77
2021/07/15 06:52:05;;;;;;;35.33;12.50;;;;;;;27.78;60.93;100428.02;125344;1099;104386;-77
2021/07/15 06:54:37;;;;;;;27.43;11.40;;;;;;;27.86;60.87;100432.23;125919;1099;104265;-76
2021/07/15 06:57:12;;;;;;;28.32;11.73;;;;;;;27.94;60.28;100432.81;125257;1101;104351;-78
2021/07/15 06:59:48;;;;;;;32.10;10.93;;;;;;;28.01;60.27;100430.82;126074;1099;104351;-77
2021/07/15 07:02:24;;;;;;;30.77;11.33;;;;;;;28.08;59.72;100422.44;126108;1099;104175;-77
2021/07/15 07:04:58;;;;;;;24.00;9.90;;;;;;;28.18;59.75;100425.66;126107;1099;104265;-77
2021/07/15 07:07:29;;;;;;;23.17;9.57;;;;;;;28.30;59.62;100425.18;125976;1099;104232;-78
2021/07/15 07:10:02;;;;;;;26.93;10.28;;;;;;;28.42;59.04;100423.83;125990;1099;104670;-76
2021/07/15 07:12:33;;;;;;;21.83;7.47;;;;;;;28.52;58.37;100421.62;125385;1099;104140;-78
2021/07/15 07:15:10;;;;;;;18.83;6.50;;;;;;;28.63;56.98;100422.10;126299;1099;104136;-78
2021/07/15 07:17:45;;;;;;;15.17;5.40;;;;;;;28.78;55.66;100428.70;126317;1099;104133;-78
2021/07/15 07:20:19;;;;;;;14.60;6.17;;;;;;;28.91;54.92;100420.97;126152;1099;104192;-78
2021/07/15 07:22:54;;;;;;;17.60;6.00;;;;;;;29.02;54.05;100420.52;126236;1099;104142;-77
2021/07/15 07:25:27;;;;;;;15.43;6.30;;;;;;;29.18;53.74;100418.03;126197;1099;104213;-78
2021/07/15 07:27:58;;;;;;;13.57;5.53;;;;;;;29.35;52.65;100415.50;126308;1099;104146;-76
2021/07/15 07:30:30;;;;;;;12.83;4.90;;;;;;;29.49;51.43;100411.32;126218;1098;104255;-76
2021/07/15 07:33:04;;;;;;;12.27;4.87;;;;;;;29.66;50.73;100419.55;126161;1099;104315;-79
2021/07/15 07:35:39;;;;;;;13.93;5.10;;;;;;;29.80;49.73;100420.80;126269;1098;104171;-80
2021/07/15 07:38:12;;;;;;;7.27;4.20;;;;;;;29.95;48.90;100422.80;126217;1099;104239;-77
2021/07/15 07:40:47;;;;;;;12.87;4.60;;;;;;;30.11;48.06;100425.66;126278;1099;104184;-79
2021/07/15 07:43:22;;;;;;;19.07;5.17;;;;;;;30.29;48.00;100421.19;126237;1099;104236;-80
2021/07/15 07:45:57;;;;;;;14.30;6.07;;;;;;;30.44;47.24;100428.60;126221;1099;104161;-79
2021/07/15 07:48:29;;;;;;;12.80;4.90;;;;;;;30.58;47.18;100427.06;126287;1099;104149;-78
2021/07/15 07:51:02;;;;;;;15.73;4.80;;;;;;;30.69;46.09;100419.28;126198;1099;104158;-78
2021/07/15 07:53:35;;;;;;;10.17;4.20;;;;;;;30.85;45.82;100407.69;126263;1099;104236;-76
2021/07/15 07:56:06;;;;;;;13.20;4.70;;;;;;;30.98;45.13;100411.58;126254;1099;104235;-77
2021/07/15 07:58:39;;;;;;;13.10;4.53;;;;;;;31.08;44.15;100411.97;126182;1099;104194;-77
2021/07/15 08:01:14;;;;;;;15.63;4.80;;;;;;;31.22;43.97;100412.12;126027;1099;104182;-77
2021/07/15 08:03:47;;;;;;;9.03;3.97;;;;;;;31.32;43.74;100418.84;126173;1099;104313;-77
2021/07/15 08:06:26;;;;;;;12.20;4.30;;;;;;;31.44;42.69;100409.16;126304;1099;104178;-78
2021/07/15 08:09:00;;;;;;;8.53;4.50;;;;;;;31.58;41.54;100415.73;126264;1099;102990;-78
2021/07/15 08:11:39;;;;;;;13.80;4.53;;;;;;;31.70;41.29;100413.23;126166;1099;104348;-78
2021/07/15 08:14:12;;;;;;;12.40;4.90;;;;;;;31.84;41.33;100409.77;126267;1099;104233;-78
2021/07/15 08:16:46;;;;;;;11.33;4.63;;;;;;;31.95;41.74;100411.03;126244;1099;104258;-78
2021/07/15 08:19:21;;;;;;;11.50;5.30;;;;;;;32.02;40.75;100409.71;126293;1099;104271;-78
2021/07/15 08:22:05;;;;;;;14.30;4.90;;;;;;;32.13;40.38;100412.73;126092;1099;104149;-78
2021/07/15 08:24:38;;;;;;;13.57;5.20;;;;;;;32.23;40.48;100407.69;126241;1097;104274;-78
2021/07/15 08:27:13;;;;;;;9.85;5.00;;;;;;;32.32;40.04;100404.45;126313;1099;104149;-75
2021/07/15 08:29:45;;;;;;;15.97;5.37;;;;;;;32.41;39.52;100403.93;126270;1099;104268;-79
2021/07/15 08:32:21;;;;;;;14.37;4.90;;;;;;;32.48;39.58;100409.01;126245;1099;104235;-79
2021/07/15 08:34:57;;;;;;;14.43;5.00;;;;;;;32.54;39.41;100401.38;126249;1099;104187;-78
2021/07/15 08:37:32;;;;;;;10.80;5.13;;;;;;;32.66;39.09;100404.37;126254;1099;104347;-81
2021/07/15 08:40:08;;;;;;;10.07;5.30;;;;;;;32.76;38.81;100402.87;126207;1099;104146;-80
2021/07/15 08:42:42;;;;;;;8.70;4.20;;;;;;;32.86;37.89;100401.34;126228;1099;104168;-79
2021/07/15 08:45:16;;;;;;;9.97;4.60;;;;;;;32.89;37.75;100401.17;126254;1099;104197;-79
2021/07/15 08:47:49;;;;;;;15.93;5.07;;;;;;;32.91;37.77;100396.54;126288;1098;104181;-79
2021/07/15 08:50:24;;;;;;;11.87;4.63;;;;;;;32.99;37.82;100397.91;126176;1099;104146;-77
2021/07/15 08:52:57;;;;;;;11.23;4.23;;;;;;;33.05;36.62;100394.82;125983;1099;104208;-78
2021/07/15 08:58:18;;;;;;;8.80;3.73;;;;;;;33.21;35.13;100395.69;126142;1099;104232;-78
2021/07/15 09:00:53;;;;;;;11.87;3.70;;;;;;;33.34;33.33;100389.51;126176;1099;104216;-78
2021/07/15 09:03:25;;;;;;;11.63;3.70;;;;;;;33.39;33.93;100385.52;125413;1099;108550;-76
2021/07/15 09:06:03;;;;;;;9.13;3.07;;;;;;;33.42;33.02;100381.74;125989;1099;104511;-79
2021/07/15 09:08:37;;;;;;;10.47;3.50;;;;;;;33.47;32.23;100385.04;125217;1102;104154;-78
2021/07/15 09:11:10;;;;;;;6.47;3.40;;;;;;;33.55;32.59;100388.18;125166;1099;104367;-81
2021/07/15 09:13:42;;;;;;;10.00;4.30;;;;;;;33.58;32.46;100390.70;125188;1102;119208;-78
2021/07/15 09:16:19;;;;;;;11.77;3.87;;;;;;;33.66;32.51;100385.66;125166;1099;104345;-78
2021/07/15 09:19:06;;;;;;;10.43;3.77;;;;;;;33.74;31.79;100381.59;125271;1102;104341;-79
2021/07/15 09:21:39;;;;;;;12.30;3.90;;;;;;;33.82;31.80;100384.72;125158;1102;104367;-78
2021/07/15 09:24:28;;;;;;;5.78;3.50;;;;;;;33.79;31.29;100384.91;125217;1102;104928;-80
2021/07/15 09:27:10;;;;;;;11.73;4.10;;;;;;;33.79;31.34;100379.47;125213;1102;104159;-79
2021/07/15 09:29:42;;;;;;;10.77;3.90;;;;;;;33.91;31.54;100381.41;125238;1099;104261;-80
2021/07/15 09:32:20;;;;;;;6.23;3.50;;;;;;;34.00;31.11;100383.55;125184;1102;104153;-78
2021/07/15 09:35:04;;;;;;;9.33;3.60;;;;;;;33.89;30.42;100375.17;125497;1099;104328;-78
2021/07/15 09:37:37;;;;;;;8.93;3.73;;;;;;;33.93;30.61;100371.30;126187;1099;104277;-79
2021/07/15 09:40:11;;;;;;;15.43;3.63;;;;;;;33.98;29.89;100374.58;126254;1099;104242;-81
2021/07/15 09:42:47;;;;;;;7.90;3.60;;;;;;;34.00;30.18;100380.83;126181;1099;104331;-79
2021/07/15 09:45:29;;;;;;;8.83;3.57;;;;;;;33.98;29.81;100374.58;126105;1099;104434;-80
2021/07/15 09:48:16;;;;;;;10.13;3.80;;;;;;;33.95;30.28;100380.22;125789;1099;104214;-77
2021/07/15 09:51:02;;;;;;;5.13;3.40;;;;;;;33.93;29.53;100375.87;126104;1099;104197;-79
2021/07/15 09:53:36;;;;;;;8.67;3.80;;;;;;;33.94;29.68;100383.94;125967;1099;104226;-80
2021/07/15 09:56:16;;;;;;;7.23;3.40;;;;;;;33.98;28.91;100390.05;126020;1099;104216;-77
2021/07/15 09:58:52;;;;;;;8.23;3.63;;;;;;;34.01;28.62;100393.44;126074;1099;104325;-77
2021/07/15 10:01:24;;;;;;;9.13;3.87;;;;;;;34.10;28.64;100380.23;126173;1099;104245;-77
2021/07/15 10:04:03;;;;;;;5.00;3.40;;;;;;;34.01;28.41;100381.69;126081;1098;104348;-78
2021/07/15 10:06:47;;;;;;;9.80;3.53;;;;;;;33.98;28.93;100382.75;126172;1099;104171;-78
2021/07/15 10:09:28;;;;;;;;;;;;;;;34.02;28.43;100378.87;126183;1099;104172;-78
2021/07/15 10:12:00;;;;;;;7.60;3.47;;;;;;;33.95;28.73;100384.80;126013;1099;104344;-77
2021/07/15 10:14:42;;;;;;;10.67;3.80;;;;;;;33.91;28.90;100381.41;125941;1098;104140;-78
2021/07/15 10:17:14;;;;;;;10.77;3.50;;;;;;;33.84;29.41;100380.91;125923;1099;104236;-77
2021/07/15 10:19:48;;;;;;;8.35;3.90;;;;;;;33.81;29.35;100377.52;125917;1099;104162;-78
2021/07/15 10:22:33;;;;;;;8.67;3.90;;;;;;;33.81;29.13;100380.23;125898;1099;104210;-78
2021/07/15 10:25:05;;;;;;;9.17;3.83;;;;;;;33.90;28.66;100385.09;126239;1099;104246;-77
2021/07/15 10:27:41;;;;;;;11.47;3.60;;;;;;;34.00;28.31;100383.55;126187;1099;104589;-79
2021/07/15 10:30:14;;;;;;;12.58;3.52;;;;;;;34.07;28.21;100375.84;126126;1099;104223;-79
2021/07/15 10:32:47;;;;;;;11.03;3.45;;;;;;;34.13;27.87;100374.59;126266;1099;104206;-80
2021/07/15 10:35:22;;;;;;;12.90;3.77;;;;;;;34.07;27.32;100373.13;126227;1099;104185;-77
2021/07/15 10:38:03;;;;;;;6.83;3.07;;;;;;;34.10;27.27;100377.51;126213;1099;104143;-78
2021/07/15 10:40:35;;;;;;;13.00;3.73;;;;;;;34.11;26.97;100373.80;126101;1099;104156;-79
2021/07/15 10:43:11;;;;;;;13.20;3.53;;;;;;;34.01;27.23;100378.97;126183;1098;104268;-78
2021/07/15 10:45:44;;;;;;;10.00;3.57;;;;;;;34.01;26.55;100368.94;126240;1099;118590;-77
2021/07/15 10:48:22;;;;;;;10.87;3.40;;;;;;;34.08;26.86;100372.16;126214;1099;104206;-80
2021/07/15 10:50:57;;;;;;;7.50;3.43;;;;;;;34.12;26.93;100370.97;126285;1099;104589;-79
2021/07/15 10:53:32;;;;;;;7.10;3.63;;;;;;;34.09;26.76;100364.86;126247;1099;104146;-78
2021/07/15 10:56:04;;;;;;;14.43;3.90;;;;;;;34.06;26.95;100368.64;126192;1099;104165;-79
2021/07/15 10:58:48;;;;;;;9.10;3.53;;;;;;;34.08;26.97;100369.44;126137;1099;104298;-80
2021/07/15 11:01:43;;;;;;;10.90;3.70;;;;;;;34.18;26.81;100372.43;126130;1098;104296;-79
2021/07/15 11:04:21;;;;;;;10.65;3.70;;;;;;;34.30;26.67;100368.94;125988;1099;104259;-80
2021/07/15 11:07:01;;;;;;;6.33;3.30;;;;;;;34.35;26.44;100365.91;126180;1098;104210;-78
2021/07/15 11:09:44;;;;;;;8.83;3.47;;;;;;;34.38;26.33;100369.30;126271;1099;104178;-78
2021/07/15 11:12:30;;;;;;;5.40;3.00;;;;;;;34.43;25.90;100362.68;126183;1099;104242;-78
2021/07/15 11:15:08;;;;;;;8.47;3.63;;;;;;;34.37;25.70;100356.64;126140;1099;104293;-79
2021/07/15 11:17:50;;;;;;;9.47;3.50;;;;;;;34.31;25.43;100364.36;126183;1099;104274;-78
2021/07/15 11:20:28;;;;;;;6.10;3.30;;;;;;;34.23;26.06;100362.10;126258;1099;104178;-79
2021/07/15 11:23:20;;;;;;;11.28;3.40;;;;;;;34.19;25.55;100355.13;126268;1099;104192;-78
2021/07/15 11:25:51;;;;;;;8.03;3.50;;;;;;;34.20;25.74;100355.03;126171;1099;102188;-80
2021/07/15 11:28:26;;;;;;;6.70;3.20;;;;;;;34.24;25.84;100347.55;126113;1099;104149;-77
2021/07/15 11:31:00;;;;;;;7.57;3.37;;;;;;;34.25;25.89;100351.14;126226;1096;105323;-78
2021/07/15 11:33:48;;;;;;;7.93;3.40;;;;;;;34.20;25.51;100345.97;126179;1099;104149;-79
2021/07/15 11:36:30;;;;;;;7.07;3.70;;;;;;;34.19;25.64;100345.11;126189;1099;104141;-77